createdAt,value
2022-09-28T00:00:14.685Z,3.92
2022-09-28T00:01:24.033Z,2.97
2022-09-28T00:02:28.193Z,3.15
2022-09-28T00:03:32.480Z,3.22
2022-09-28T00:04:35.956Z,3.05
2022-09-28T00:05:39.451Z,4.03
2022-09-28T00:06:43.155Z,3.00
2022-09-28T00:07:47.668Z,3.63
2022-09-28T00:08:52.619Z,3.13
2022-09-28T00:09:57.120Z,3.40
2022-09-28T00:11:06.053Z,3.88
2022-09-28T00:12:10.706Z,3.58
2022-09-28T00:13:14.735Z,4.00
2022-09-28T00:14:18.753Z,3.67
2022-09-28T00:15:24.496Z,3.78
2022-09-28T00:16:35.291Z,3.40
2022-09-28T00:17:38.927Z,3.55
2022-09-28T00:18:43.720Z,3.72
2022-09-28T00:19:47.297Z,3.22
2022-09-28T00:21:11.259Z,3.40
2022-09-28T00:22:17.923Z,4.03
2022-09-28T00:23:21.468Z,3.50
2022-09-28T00:24:27.683Z,3.25
2022-09-28T00:25:31.827Z,3.45
2022-09-28T00:26:35.350Z,4.32
2022-09-28T00:27:38.943Z,3.35
2022-09-28T00:28:42.357Z,3.63
2022-09-28T00:29:46.184Z,3.38
2022-09-28T00:30:56.623Z,4.18
2022-09-28T00:47:19.834Z,3.05
2022-09-28T00:48:28.356Z,3.80
2022-09-28T00:50:08.357Z,3.22
2022-09-28T00:51:13.725Z,2.70
2022-09-28T00:52:36.186Z,3.33
2022-09-28T00:53:44.487Z,3.60
2022-09-28T00:54:51.405Z,3.10
2022-09-28T00:56:04.965Z,2.80
2022-09-28T00:57:09.776Z,4.03
2022-09-28T00:58:20.848Z,3.03
2022-09-28T00:59:24.952Z,3.35
2022-09-28T01:00:28.779Z,3.75
2022-09-28T01:01:32.496Z,3.00
2022-09-28T01:02:36.116Z,3.83
2022-09-28T01:03:48.802Z,4.28
2022-09-28T01:04:53.328Z,3.85
2022-09-28T01:06:02.346Z,2.72
2022-09-28T01:07:08.989Z,3.40
2022-09-28T01:08:14.758Z,3.58
2022-09-28T01:09:22.462Z,2.92
2022-09-28T01:10:29.098Z,2.70
2022-09-28T01:11:37.585Z,3.05
2022-09-28T01:12:41.340Z,3.28
2022-09-28T01:13:48.094Z,2.53
2022-09-28T01:14:52.956Z,3.33
2022-09-28T01:16:15.367Z,2.95
2022-09-28T01:17:50.374Z,2.92
2022-09-28T01:19:05.734Z,3.83
2022-09-28T01:20:53.903Z,2.80
2022-09-28T01:22:38.427Z,3.95
2022-09-28T01:24:24.046Z,3.92
2022-09-28T01:25:58.046Z,2.88
2022-09-28T01:27:43.121Z,3.10
2022-09-28T01:28:56.810Z,3.90
2022-09-28T01:30:10.547Z,2.92
2022-09-28T01:31:18.263Z,3.53
2022-09-28T01:33:55.696Z,3.45
2022-09-28T01:35:16.090Z,3.03
2022-09-28T01:36:37.109Z,3.08
2022-09-28T01:38:04.407Z,2.95
2022-09-28T01:39:21.749Z,2.85
2022-09-28T01:40:28.756Z,2.58
2022-09-28T01:41:37.043Z,2.28
2022-09-28T01:42:45.578Z,2.75
2022-09-28T01:43:56.111Z,3.05
2022-09-28T01:45:12.591Z,3.40
2022-09-28T01:46:26.005Z,3.17
2022-09-28T01:47:37.975Z,3.45
2022-09-28T01:48:56.898Z,2.85
2022-09-28T01:50:12.130Z,2.70
2022-09-28T01:51:36.649Z,2.78
2022-09-28T01:52:59.662Z,3.25
2022-09-28T01:54:13.793Z,2.45
2022-09-28T01:55:32.142Z,2.83
2022-09-28T01:56:48.701Z,3.28
2022-09-28T01:58:04.913Z,3.35
2022-09-28T01:59:22.972Z,2.42
2022-09-28T02:00:28.105Z,3.15
2022-09-28T02:01:47.065Z,3.17
2022-09-28T02:03:12.579Z,2.65
2022-09-28T02:04:27.775Z,3.03
2022-09-28T02:05:36.956Z,2.95
2022-09-28T02:07:07.763Z,2.67
2022-09-28T02:08:52.128Z,2.85
2022-09-28T02:10:11.017Z,2.45
2022-09-28T02:11:21.097Z,2.50
2022-09-28T02:12:39.793Z,3.10
2022-09-28T02:13:55.261Z,2.15
2022-09-28T02:15:12.793Z,2.45
2022-09-28T02:16:45.162Z,2.45
2022-09-28T02:17:49.888Z,2.70
2022-09-28T02:18:53.597Z,2.40
2022-09-28T02:19:57.167Z,2.55
2022-09-28T02:21:13.891Z,2.60
2022-09-28T02:22:27.674Z,2.35
2022-09-28T02:23:36.299Z,2.38
2022-09-28T02:25:16.487Z,2.10
2022-09-28T02:26:27.645Z,2.55
2022-09-28T02:27:49.591Z,2.20
2022-09-28T02:28:53.343Z,2.28
2022-09-28T02:29:57.425Z,2.35
2022-09-28T02:31:01.512Z,2.42
2022-09-28T02:32:05.320Z,2.08
2022-09-28T02:33:16.836Z,1.67
2022-09-28T02:34:20.427Z,2.20
2022-09-28T02:35:24.250Z,2.08
2022-09-28T02:36:29.028Z,2.75
2022-09-28T02:37:32.869Z,2.17
2022-09-28T02:38:38.055Z,2.90
2022-09-28T02:39:41.670Z,2.17
2022-09-28T02:41:02.609Z,1.83
2022-09-28T02:42:40.797Z,1.92
2022-09-28T02:44:22.141Z,2.15
2022-09-28T02:46:02.429Z,2.20
2022-09-28T02:47:19.521Z,2.42
2022-09-28T02:49:20.866Z,2.38
2022-09-28T02:50:47.228Z,2.45
2022-09-28T02:52:28.761Z,2.15
2022-09-28T02:53:59.718Z,2.35
2022-09-28T02:55:44.739Z,2.30
2022-09-28T02:57:19.829Z,1.40
2022-09-28T02:59:00.509Z,1.67
2022-09-28T03:00:15.569Z,1.67
2022-09-28T03:02:12.456Z,1.48
2022-09-28T03:03:33.427Z,1.55
2022-09-28T03:05:18.034Z,1.48
2022-09-28T03:06:45.961Z,1.52
2022-09-28T03:07:58.204Z,1.50
2022-09-28T03:09:37.838Z,1.85
2022-09-28T03:10:57.245Z,1.13
2022-09-28T03:12:11.430Z,1.55
2022-09-28T03:13:17.123Z,1.85
2022-09-28T03:14:21.433Z,1.40
2022-09-28T03:15:29.637Z,1.30
2022-09-28T03:16:33.471Z,1.05
2022-09-28T03:17:37.601Z,1.40
2022-09-28T03:18:42.404Z,1.90
2022-09-28T03:19:45.927Z,1.33
2022-09-28T03:20:50.204Z,1.40
2022-09-28T03:21:55.644Z,1.50
2022-09-28T03:23:23.789Z,2.05
2022-09-28T03:24:22.914Z,1.50
2022-09-28T03:25:27.088Z,1.50
2022-09-28T03:26:30.547Z,1.60
2022-09-28T03:27:34.444Z,1.20
2022-09-28T03:28:38.545Z,1.42
2022-09-28T03:29:42.126Z,1.55
2022-09-28T03:30:46.567Z,1.40
2022-09-28T03:31:50.470Z,1.33
2022-09-28T03:33:02.543Z,1.23
2022-09-28T03:34:06.276Z,1.13
2022-09-28T03:35:13.628Z,1.25
2022-09-28T03:36:17.343Z,1.38
2022-09-28T03:37:20.787Z,1.13
2022-09-28T03:38:24.790Z,1.42
2022-09-28T03:39:28.375Z,1.40
2022-09-28T03:40:32.156Z,1.40
2022-09-28T03:41:35.791Z,1.38
2022-09-28T03:42:39.242Z,1.80
2022-09-28T03:43:42.893Z,1.17
2022-09-28T03:44:46.433Z,1.10
2022-09-28T03:45:59.387Z,1.25
2022-09-28T03:47:03.126Z,1.10
2022-09-28T03:48:06.674Z,1.30
2022-09-28T03:49:10.768Z,1.30
2022-09-28T03:50:15.585Z,1.67
2022-09-28T03:51:19.681Z,1.23
2022-09-28T03:52:23.199Z,1.30
2022-09-28T03:53:27.085Z,1.30
2022-09-28T03:54:30.734Z,1.45
2022-09-28T03:55:34.501Z,1.20
2022-09-28T03:56:38.094Z,1.30
2022-09-28T03:57:41.581Z,1.50
2022-09-28T03:58:45.238Z,1.80
2022-09-28T03:59:48.963Z,1.10
2022-09-28T04:00:52.586Z,1.40
2022-09-28T04:01:56.185Z,1.10
2022-09-28T04:02:59.788Z,1.33
2022-09-28T04:04:03.315Z,1.10
2022-09-28T04:05:07.161Z,1.10
2022-09-28T04:06:11.121Z,1.50
2022-09-28T04:07:15.111Z,1.60
2022-09-28T04:08:20.011Z,1.20
2022-09-28T04:09:23.533Z,1.42
2022-09-28T04:10:27.363Z,1.90
2022-09-28T04:11:42.999Z,1.20
2022-09-28T04:12:56.803Z,1.65
2022-09-28T04:14:00.929Z,1.48
2022-09-28T04:15:04.969Z,1.58
2022-09-28T04:16:10.880Z,1.95
2022-09-28T04:17:14.628Z,1.33
2022-09-28T04:18:18.201Z,1.40
2022-09-28T04:19:25.385Z,1.35
2022-09-28T04:20:28.974Z,1.60
2022-09-28T04:21:33.000Z,1.60
2022-09-28T04:22:37.783Z,1.90
2022-09-28T04:23:42.398Z,1.23
2022-09-28T04:24:46.657Z,1.70
2022-09-28T04:25:53.585Z,1.40
2022-09-28T04:27:17.250Z,1.15
2022-09-28T04:28:39.509Z,1.70
2022-09-28T04:29:44.091Z,1.60
2022-09-28T04:30:48.373Z,1.77
2022-09-28T04:31:55.441Z,1.70
2022-09-28T04:32:59.040Z,1.58
2022-09-28T04:34:02.585Z,1.23
2022-09-28T04:35:07.097Z,1.63
2022-09-28T04:36:11.251Z,1.92
2022-09-28T04:37:15.107Z,2.08
2022-09-28T04:38:30.854Z,1.30
2022-09-28T04:39:46.168Z,1.48
2022-09-28T04:40:51.816Z,2.47
2022-09-28T04:41:56.080Z,1.85
2022-09-28T04:42:59.840Z,1.90
2022-09-28T04:44:04.074Z,1.80
2022-09-28T04:45:08.737Z,2.10
2022-09-28T04:46:12.697Z,1.90
2022-09-28T04:47:16.276Z,1.85
2022-09-28T04:48:19.752Z,2.10
2022-09-28T04:49:25.122Z,1.50
2022-09-28T04:50:28.629Z,2.05
2022-09-28T04:51:33.148Z,1.48
2022-09-28T04:52:37.991Z,1.90
2022-09-28T04:53:41.787Z,1.40
2022-09-28T04:54:45.904Z,1.73
2022-09-28T04:56:00.425Z,1.80
2022-09-28T04:57:06.288Z,1.88
2022-09-28T04:58:09.930Z,2.30
2022-09-28T04:59:13.604Z,2.03
2022-09-28T05:00:17.458Z,1.85
2022-09-28T05:01:23.937Z,1.98
2022-09-28T05:02:28.027Z,2.13
2022-09-28T05:03:31.657Z,2.35
2022-09-28T05:04:35.846Z,1.90
2022-09-28T05:05:45.820Z,1.90
2022-09-28T05:06:49.638Z,2.00
2022-09-28T05:07:53.248Z,1.58
2022-09-28T05:08:57.687Z,1.85
2022-09-28T05:10:01.677Z,1.95
2022-09-28T05:11:08.722Z,2.33
2022-09-28T05:12:12.779Z,1.50
2022-09-28T05:13:19.095Z,1.92
2022-09-28T05:14:22.774Z,1.88
2022-09-28T05:15:26.316Z,2.30
2022-09-28T05:16:33.835Z,1.80
2022-09-28T05:17:37.454Z,2.22
2022-09-28T05:18:41.082Z,2.33
2022-09-28T05:19:44.722Z,1.80
2022-09-28T05:20:48.260Z,2.22
2022-09-28T05:21:51.877Z,1.70
2022-09-28T05:22:56.388Z,1.90
2022-09-28T05:24:07.794Z,1.70
2022-09-28T05:25:11.527Z,1.70
2022-09-28T05:26:15.751Z,2.53
2022-09-28T05:27:19.586Z,1.45
2022-09-28T05:28:29.138Z,1.58
2022-09-28T05:29:32.969Z,1.90
2022-09-28T05:30:37.206Z,2.00
2022-09-28T05:31:41.193Z,2.15
2022-09-28T05:32:47.563Z,1.80
2022-09-28T05:33:55.592Z,1.95
2022-09-28T05:35:01.359Z,1.70
2022-09-28T05:36:11.141Z,1.98
2022-09-28T05:37:14.686Z,2.50
2022-09-28T05:38:18.238Z,2.25
2022-09-28T05:39:24.559Z,2.25
2022-09-28T05:40:28.304Z,2.08
2022-09-28T05:41:32.072Z,1.95
2022-09-28T05:42:36.004Z,1.70
2022-09-28T05:43:39.714Z,1.80
2022-09-28T05:44:43.524Z,1.73
2022-09-28T05:45:49.400Z,2.47
2022-09-28T05:46:56.569Z,2.22
2022-09-28T05:48:00.279Z,1.92
2022-09-28T05:49:04.261Z,1.70
2022-09-28T05:50:11.973Z,1.92
2022-09-28T05:51:15.689Z,2.10
2022-09-28T05:52:20.449Z,1.98
2022-09-28T05:53:24.579Z,1.98
2022-09-28T05:54:28.182Z,2.22
2022-09-28T05:55:33.037Z,2.03
2022-09-28T05:56:36.812Z,2.05
2022-09-28T05:57:40.534Z,1.70
2022-09-28T05:58:44.022Z,1.90
2022-09-28T05:59:47.628Z,2.55
2022-09-28T06:00:56.675Z,2.25
2022-09-28T06:02:00.810Z,1.60
2022-09-28T06:03:12.266Z,1.70
2022-09-28T06:04:16.591Z,2.00
2022-09-28T06:05:20.570Z,1.85
2022-09-28T06:06:24.310Z,2.05
2022-09-28T06:07:28.046Z,1.70
2022-09-28T06:08:33.691Z,1.67
2022-09-28T06:09:37.668Z,1.63
2022-09-28T06:10:41.905Z,1.80
2022-09-28T06:11:45.570Z,2.20
2022-09-28T06:23:19.812Z,3.45
2022-09-28T06:24:24.273Z,2.70
2022-09-28T06:25:28.681Z,2.08
2022-09-28T06:26:32.816Z,2.58
2022-09-28T06:27:37.311Z,1.58
2022-09-28T06:28:40.995Z,1.83
2022-09-28T06:29:44.536Z,1.85
2022-09-28T06:30:48.318Z,2.58
2022-09-28T06:31:52.033Z,1.67
2022-09-28T06:32:58.207Z,1.83
2022-09-28T06:34:02.578Z,1.73
2022-09-28T06:35:06.771Z,1.42
2022-09-28T06:36:10.702Z,1.40
2022-09-28T06:37:14.230Z,1.20
2022-09-28T06:38:18.461Z,1.70
2022-09-28T06:39:22.316Z,1.70
2022-09-28T06:40:27.052Z,1.65
2022-09-28T06:41:30.858Z,2.08
2022-09-28T06:42:34.970Z,1.40
2022-09-28T06:43:41.887Z,1.70
2022-09-28T06:44:47.188Z,1.13
2022-09-28T06:45:54.344Z,1.38
2022-09-28T06:46:57.994Z,1.27
2022-09-28T06:48:03.062Z,1.60
2022-09-28T06:49:14.162Z,1.58
2022-09-28T06:50:20.005Z,1.27
2022-09-28T06:51:25.154Z,1.50
2022-09-28T06:52:29.010Z,1.65
2022-09-28T06:53:32.822Z,1.88
2022-09-28T06:54:36.350Z,1.20
2022-09-28T06:55:49.352Z,1.25
2022-09-28T06:56:55.807Z,1.30
2022-09-28T06:58:08.085Z,1.30
2022-09-28T06:59:11.597Z,0.98
2022-09-28T07:00:15.715Z,1.27
2022-09-28T07:01:22.711Z,1.35
2022-09-28T07:02:26.575Z,1.35
2022-09-28T07:03:30.256Z,1.25
2022-09-28T07:04:34.135Z,1.60
2022-09-28T07:05:46.507Z,1.20
2022-09-28T07:06:50.892Z,1.13
2022-09-28T07:07:58.809Z,1.40
2022-09-28T07:09:22.245Z,1.10
2022-09-28T07:10:32.113Z,1.30
2022-09-28T07:11:39.787Z,1.30
2022-09-28T07:12:43.914Z,1.02
2022-09-28T07:13:51.173Z,1.00
2022-09-28T07:14:57.440Z,1.23
2022-09-28T07:16:02.070Z,1.20
2022-09-28T07:17:13.790Z,1.42
2022-09-28T07:18:18.876Z,1.08
2022-09-28T07:19:23.014Z,0.82
2022-09-28T07:20:27.671Z,0.93
2022-09-28T07:21:31.305Z,1.10
2022-09-28T07:22:43.123Z,0.93
2022-09-28T07:23:53.822Z,1.70
2022-09-28T07:24:57.999Z,1.40
2022-09-28T07:26:08.291Z,0.80
2022-09-28T07:27:12.600Z,0.90
2022-09-28T07:28:17.514Z,1.17
2022-09-28T07:29:21.573Z,0.85
2022-09-28T07:30:27.505Z,0.77
2022-09-28T07:31:32.418Z,1.00
2022-09-28T07:32:37.657Z,1.20
2022-09-28T07:33:41.891Z,0.95
2022-09-28T07:34:46.202Z,0.70
2022-09-28T07:35:55.725Z,1.20
2022-09-28T07:36:59.832Z,1.08
2022-09-28T07:38:08.745Z,0.68
2022-09-28T07:39:12.339Z,0.75
2022-09-28T07:40:35.063Z,0.60
2022-09-28T07:41:40.103Z,0.60
2022-09-28T07:42:43.692Z,0.60
2022-09-28T07:43:47.623Z,0.68
2022-09-28T07:44:51.629Z,0.50
2022-09-28T07:45:55.962Z,0.70
2022-09-28T07:46:59.585Z,0.50
2022-09-28T07:48:04.266Z,0.63
2022-09-28T07:49:11.414Z,0.73
2022-09-28T07:50:16.836Z,0.68
2022-09-28T07:51:21.535Z,0.70
2022-09-28T07:52:26.271Z,0.55
2022-09-28T07:53:31.087Z,0.80
2022-09-28T07:54:34.836Z,0.80
2022-09-28T07:55:38.313Z,0.57
2022-09-28T07:56:42.174Z,0.65
2022-09-28T07:57:48.255Z,0.30
2022-09-28T07:58:52.201Z,0.73
2022-09-28T07:59:55.907Z,0.60
2022-09-28T08:01:03.152Z,0.50
2022-09-28T08:02:07.074Z,0.40
2022-09-28T08:03:10.613Z,0.40
2022-09-28T08:04:14.207Z,0.68
2022-09-28T08:05:18.258Z,0.60
2022-09-28T08:06:22.108Z,0.52
2022-09-28T08:07:26.006Z,0.75
2022-09-28T08:08:30.178Z,0.43
2022-09-28T08:09:34.502Z,0.60
2022-09-28T08:10:38.283Z,0.60
2022-09-28T08:11:44.012Z,0.70
2022-09-28T08:12:48.056Z,0.63
2022-09-28T08:13:55.535Z,0.40
2022-09-28T08:15:00.287Z,0.52
2022-09-28T08:16:05.995Z,0.50
2022-09-28T08:17:10.873Z,0.52
2022-09-28T08:18:14.703Z,0.50
2022-09-28T08:19:18.366Z,0.63
2022-09-28T08:20:40.608Z,0.55
2022-09-28T08:21:47.458Z,0.47
2022-09-28T08:22:51.671Z,0.40
2022-09-28T08:23:55.926Z,0.55
2022-09-28T08:24:59.523Z,0.40
2022-09-28T08:26:03.148Z,0.50
2022-09-28T08:27:07.379Z,0.40
2022-09-28T08:28:10.871Z,0.40
2022-09-28T08:29:15.553Z,0.50
2022-09-28T08:30:20.169Z,0.40
2022-09-28T08:31:23.738Z,0.47
2022-09-28T08:32:31.245Z,0.40
2022-09-28T08:33:35.778Z,0.30
2022-09-28T09:12:28.801Z,0.40
2022-09-28T09:13:51.483Z,0.55
2022-09-28T09:15:43.453Z,0.35
2022-09-28T09:17:14.391Z,0.30
2022-09-28T09:19:03.751Z,0.30
2022-09-28T09:20:32.726Z,0.40
2022-09-28T09:21:52.708Z,0.50
2022-09-28T09:23:06.236Z,0.40
2022-09-28T09:24:27.294Z,0.40
2022-09-28T09:25:56.015Z,0.60
2022-09-28T09:27:14.660Z,0.57
2022-09-28T09:28:38.409Z,0.38
2022-09-28T09:30:13.450Z,0.40
2022-09-28T09:31:29.026Z,0.70
2022-09-28T09:33:11.936Z,0.50
2022-09-28T09:34:24.676Z,0.65
2022-09-28T09:35:40.403Z,0.60
2022-09-28T09:37:22.031Z,0.40
2022-09-28T09:39:17.614Z,0.50
2022-09-28T09:41:21.113Z,0.50
2022-09-28T09:42:44.964Z,0.60
2022-09-28T09:44:13.552Z,0.60
2022-09-28T09:45:41.343Z,0.70
2022-09-28T09:47:08.412Z,0.70
2022-09-28T09:48:58.786Z,0.50
2022-09-28T09:50:15.174Z,0.60
2022-09-28T09:51:52.004Z,0.50
2022-09-28T09:53:13.532Z,0.80
2022-09-28T09:54:26.111Z,1.15
2022-09-28T09:55:46.510Z,0.50
2022-09-28T09:57:08.214Z,0.70
2022-09-28T09:58:46.768Z,0.55
2022-09-28T09:59:50.844Z,0.70
2022-09-28T10:01:07.450Z,0.82
2022-09-28T10:02:35.129Z,0.65
2022-09-28T10:03:45.939Z,0.50
2022-09-28T10:04:55.275Z,0.60
2022-09-28T10:06:07.787Z,0.70
2022-09-28T10:07:23.751Z,0.75
2022-09-28T10:08:29.114Z,0.60
2022-09-28T10:09:48.489Z,0.60
2022-09-28T10:11:25.750Z,0.60
2022-09-28T10:12:31.194Z,0.57
2022-09-28T10:13:35.620Z,0.55
2022-09-28T10:14:39.493Z,0.63
2022-09-28T10:15:43.601Z,0.60
2022-09-28T10:16:49.969Z,0.75
2022-09-28T10:18:00.374Z,0.50
2022-09-28T10:19:04.188Z,0.70
2022-09-28T10:20:15.445Z,0.82
2022-09-28T10:21:23.205Z,0.60
2022-09-28T10:22:31.614Z,0.68
2022-09-28T10:23:38.683Z,0.60
2022-09-28T10:24:47.249Z,0.60
2022-09-28T10:25:57.506Z,0.60
2022-09-28T10:27:12.448Z,0.80
2022-09-28T10:28:26.475Z,0.70
2022-09-28T10:29:43.485Z,0.70
2022-09-28T10:30:47.385Z,0.65
2022-09-28T10:31:54.605Z,0.85
2022-09-28T10:33:00.965Z,0.63
2022-09-28T10:34:08.066Z,0.65
2022-09-28T10:35:29.683Z,0.88
2022-09-28T10:36:52.335Z,0.73
2022-09-28T10:38:17.578Z,0.80
2022-09-28T10:39:53.679Z,0.60
2022-09-28T10:41:11.651Z,0.73
2022-09-28T10:42:27.294Z,0.70
2022-09-28T10:43:38.692Z,0.63
2022-09-28T10:44:58.881Z,0.70
2022-09-28T10:46:05.276Z,0.60
2022-09-28T10:47:15.741Z,0.60
2022-09-28T10:48:22.478Z,0.70
2022-09-28T10:49:28.694Z,0.70
2022-09-28T10:50:32.664Z,0.68
2022-09-28T10:51:44.343Z,0.60
2022-09-28T10:52:47.901Z,0.90
2022-09-28T10:54:02.953Z,0.57
2022-09-28T10:55:30.043Z,0.75
2022-09-28T10:56:40.635Z,0.60
2022-09-28T10:57:44.250Z,0.60
2022-09-28T10:58:47.987Z,0.60
2022-09-28T10:59:51.945Z,0.73
2022-09-28T11:01:09.385Z,0.80
2022-09-28T11:02:33.492Z,0.70
2022-09-28T11:04:02.096Z,0.60
2022-09-28T11:05:07.981Z,0.60
2022-09-28T11:06:12.612Z,0.80
2022-09-28T11:07:27.779Z,0.50
2022-09-28T11:08:39.626Z,0.70
2022-09-28T11:09:48.849Z,0.90
2022-09-28T11:11:16.709Z,0.77
2022-09-28T11:12:34.506Z,0.70
2022-09-28T11:13:46.272Z,0.60
2022-09-28T11:14:59.186Z,0.60
2022-09-28T11:16:03.162Z,0.90
2022-09-28T11:17:32.932Z,0.60
2022-09-28T11:18:36.502Z,0.70
2022-09-28T11:19:41.194Z,0.60
2022-09-28T11:20:45.573Z,0.68
2022-09-28T11:21:49.390Z,0.70
2022-09-28T11:22:58.758Z,0.60
2022-09-28T11:24:19.635Z,0.60
2022-09-28T11:25:28.470Z,0.70
2022-09-28T11:26:41.103Z,0.55
2022-09-28T11:27:53.504Z,0.60
2022-09-28T11:28:57.222Z,0.50
2022-09-28T11:30:01.466Z,0.60
2022-09-28T11:31:09.202Z,0.70
2022-09-28T11:32:15.888Z,0.60
2022-09-28T11:33:33.654Z,0.60
2022-09-28T11:34:58.725Z,0.88
2022-09-28T11:36:16.891Z,0.50
2022-09-28T11:37:42.454Z,0.60
2022-09-28T11:39:23.192Z,0.65
2022-09-28T11:40:42.680Z,0.60
2022-09-28T11:42:03.383Z,0.65
2022-09-28T11:43:43.895Z,0.70
2022-09-28T11:44:49.702Z,0.80
2022-09-28T11:46:26.858Z,0.52
2022-09-28T11:48:01.258Z,0.70
2022-09-28T11:49:27.962Z,0.70
2022-09-28T11:50:45.698Z,0.60
2022-09-28T11:51:54.237Z,0.60
2022-09-28T11:53:14.751Z,0.50
2022-09-28T11:55:25.671Z,0.63
2022-09-28T11:56:43.415Z,0.63
2022-09-28T11:58:01.635Z,0.52
2022-09-28T11:59:22.823Z,0.93
2022-09-28T12:00:28.760Z,0.80
2022-09-28T12:02:00.534Z,0.60
2022-09-28T12:03:34.202Z,0.50
2022-09-28T12:04:53.131Z,0.60
2022-09-28T12:06:04.777Z,0.60
2022-09-28T12:07:38.540Z,0.60
2022-09-28T12:09:03.403Z,0.75
2022-09-28T12:10:45.388Z,0.63
2022-09-28T12:11:58.901Z,0.68
2022-09-28T12:13:28.603Z,0.60
2022-09-28T12:14:39.877Z,0.70
2022-09-28T12:16:15.046Z,0.55
2022-09-28T12:17:32.924Z,0.85
2022-09-28T12:19:03.982Z,0.60
2022-09-28T12:20:30.613Z,0.50
2022-09-28T12:21:55.806Z,0.82
2022-09-28T12:23:21.207Z,0.90
2022-09-28T12:24:52.928Z,0.90
2022-09-28T12:26:04.735Z,0.73
2022-09-28T12:27:26.140Z,0.60
2022-09-28T12:28:39.970Z,0.95
2022-09-28T12:30:13.932Z,0.60
2022-09-28T12:31:34.259Z,0.80
2022-09-28T12:33:00.372Z,0.70
2022-09-28T12:34:05.219Z,0.60
2022-09-28T12:35:58.302Z,0.70
2022-09-28T12:37:36.510Z,0.77
2022-09-28T12:39:19.160Z,0.63
2022-09-28T12:40:37.565Z,0.65
2022-09-28T12:42:46.186Z,0.60
2022-09-28T12:44:06.062Z,0.90
2022-09-28T12:46:10.398Z,0.73
2022-09-28T12:47:37.778Z,0.50
2022-09-28T12:51:20.645Z,1.42
2022-09-28T12:52:37.825Z,1.25
2022-09-28T12:54:18.485Z,1.38
2022-09-28T12:55:37.195Z,1.10
2022-09-28T12:57:05.684Z,0.98
2022-09-28T12:58:33.080Z,0.82
2022-09-28T13:00:02.421Z,0.70
2022-09-28T13:01:24.272Z,0.90
2022-09-28T13:03:02.015Z,0.80
2022-09-28T13:04:32.261Z,0.70
2022-09-28T13:06:06.115Z,0.60
2022-09-28T13:07:30.541Z,0.70
2022-09-28T13:08:40.600Z,0.60
2022-09-28T13:09:59.218Z,0.60
2022-09-28T13:11:32.047Z,0.80
2022-09-28T13:13:28.247Z,0.60
2022-09-28T13:15:04.348Z,0.90
2022-09-28T13:16:44.497Z,0.65
2022-09-28T13:18:16.114Z,0.70
2022-09-28T13:19:49.049Z,0.63
2022-09-28T13:21:46.041Z,0.60
2022-09-28T13:23:20.017Z,0.60
2022-09-28T13:24:33.492Z,0.75
2022-09-28T13:25:52.237Z,0.80
2022-09-28T13:27:03.114Z,0.60
2022-09-28T13:28:07.042Z,0.65
2022-09-28T13:29:18.385Z,0.60
2022-09-28T13:30:22.753Z,0.82
2022-09-28T13:31:33.956Z,0.70
2022-09-28T13:32:41.091Z,0.70
2022-09-28T13:33:47.675Z,0.70
2022-09-28T13:34:51.689Z,0.60
2022-09-28T13:35:55.386Z,0.98
2022-09-28T13:37:20.421Z,0.60
2022-09-28T13:38:24.025Z,0.60
2022-09-28T13:39:46.166Z,0.68
2022-09-28T13:41:04.871Z,0.85
2022-09-28T13:42:11.965Z,0.60
2022-09-28T13:43:43.321Z,0.70
2022-09-28T13:45:20.511Z,0.70
2022-09-28T13:47:00.607Z,0.60
2022-09-28T13:48:13.586Z,0.80
2022-09-28T13:50:00.820Z,0.70
2022-09-28T13:51:38.306Z,0.90
2022-09-28T13:53:17.503Z,0.60
2022-09-28T13:54:45.531Z,0.73
2022-09-28T13:56:19.413Z,0.70
2022-09-28T13:57:42.082Z,0.50
2022-09-28T13:59:29.102Z,0.70
2022-09-28T14:00:53.484Z,0.73
2022-09-28T14:02:43.054Z,0.93
2022-09-28T14:04:19.184Z,0.70
2022-09-28T14:05:46.995Z,0.50
2022-09-28T14:07:33.777Z,0.88
2022-09-28T14:09:08.706Z,0.52
2022-09-28T14:10:21.216Z,0.70
2022-09-28T14:11:27.565Z,0.70
2022-09-28T14:12:33.865Z,0.80
2022-09-28T14:13:43.178Z,0.60
2022-09-28T14:14:50.272Z,0.73
2022-09-28T14:15:54.139Z,0.70
2022-09-28T14:17:23.869Z,0.65
2022-09-28T14:18:34.374Z,0.60
2022-09-28T14:19:39.342Z,0.80
2022-09-28T14:21:06.539Z,0.57
2022-09-28T14:23:10.895Z,0.80
2022-09-28T14:24:32.380Z,0.60
2022-09-28T14:26:20.565Z,0.60
2022-09-28T14:28:13.076Z,0.60
2022-09-28T14:29:31.828Z,0.60
2022-09-28T14:30:48.495Z,0.80
2022-09-28T14:31:52.391Z,0.70
2022-09-28T14:32:59.711Z,0.70
2022-09-28T14:34:04.683Z,0.82
2022-09-28T14:35:31.562Z,0.70
2022-09-28T14:37:07.742Z,0.60
2022-09-28T14:38:38.347Z,0.73
2022-09-28T14:40:13.158Z,0.60
2022-09-28T14:41:17.846Z,0.60
2022-09-28T14:42:25.981Z,0.68
2022-09-28T14:43:45.773Z,0.60
2022-09-28T14:45:06.779Z,1.13
2022-09-28T14:46:11.438Z,0.80
2022-09-28T14:47:41.053Z,0.80
2022-09-28T14:48:55.340Z,0.65
2022-09-28T14:50:21.963Z,0.98
2022-09-28T14:51:30.299Z,0.93
2022-09-28T14:52:47.422Z,0.70
2022-09-28T14:53:56.589Z,0.60
2022-09-28T14:55:00.371Z,0.63
2022-09-28T14:56:09.070Z,0.60
2022-09-28T14:57:20.257Z,0.70
2022-09-28T14:58:30.052Z,0.90
2022-09-28T14:59:41.860Z,0.80
2022-09-28T15:00:49.234Z,0.60
2022-09-28T15:02:11.714Z,0.70
2022-09-28T15:03:16.343Z,0.70
2022-09-28T15:04:21.264Z,0.82
2022-09-28T15:05:36.064Z,0.85
2022-09-28T15:06:51.385Z,0.80
2022-09-28T15:07:56.537Z,0.82
2022-09-28T15:09:00.003Z,0.80
2022-09-28T15:10:26.620Z,0.90
2022-09-28T15:11:31.676Z,1.10
2022-09-28T15:12:35.375Z,1.00
2022-09-28T15:13:40.831Z,0.73
2022-09-28T15:14:59.761Z,1.30
2022-09-28T15:16:14.661Z,0.73
2022-09-28T15:17:24.671Z,0.80
2022-09-28T15:19:01.615Z,0.70
2022-09-28T15:20:30.055Z,0.93
2022-09-28T15:21:41.195Z,0.85
2022-09-28T15:22:50.619Z,1.13
2022-09-28T15:23:55.405Z,0.73
2022-09-28T15:25:03.012Z,0.90
2022-09-28T15:26:22.236Z,0.63
2022-09-28T15:27:35.496Z,1.10
2022-09-28T15:28:45.184Z,0.88
2022-09-28T15:30:27.033Z,1.25
2022-09-28T15:31:36.350Z,1.00
2022-09-28T15:32:40.149Z,0.88
2022-09-28T15:34:02.324Z,0.90
2022-09-28T15:35:27.143Z,1.08
2022-09-28T15:36:37.941Z,1.05
2022-09-28T15:37:42.794Z,0.85
2022-09-28T15:38:57.969Z,1.10
2022-09-28T15:40:03.163Z,1.08
2022-09-28T15:41:10.045Z,1.20
2022-09-28T15:42:17.022Z,0.80
2022-09-28T15:43:30.983Z,1.13
2022-09-28T15:44:44.150Z,1.20
2022-09-28T15:46:13.832Z,1.00
2022-09-28T15:47:30.830Z,0.85
2022-09-28T15:48:44.296Z,1.00
2022-09-28T15:50:02.939Z,1.00
2022-09-28T15:51:11.744Z,1.13
2022-09-28T15:52:26.136Z,0.90
2022-09-28T15:53:31.401Z,1.40
2022-09-28T15:54:45.327Z,1.15
2022-09-28T15:55:51.475Z,1.05
2022-09-28T15:57:02.732Z,1.02
2022-09-28T15:58:12.650Z,1.33
2022-09-28T15:59:16.108Z,0.80
2022-09-28T16:00:30.087Z,0.77
2022-09-28T16:01:44.252Z,0.77
2022-09-28T16:03:22.296Z,1.00
2022-09-28T16:05:01.271Z,1.25
2022-09-28T16:06:10.841Z,0.90
2022-09-28T16:07:37.104Z,0.80
2022-09-28T16:08:44.048Z,0.75
2022-09-28T16:10:13.477Z,0.77
2022-09-28T16:11:38.741Z,0.90
2022-09-28T16:12:50.514Z,1.00
2022-09-28T16:14:14.817Z,0.75
2022-09-28T16:15:32.031Z,1.02
2022-09-28T16:16:48.178Z,0.70
2022-09-28T16:18:04.221Z,0.93
2022-09-28T16:19:23.709Z,1.10
2022-09-28T16:20:36.528Z,1.15
2022-09-28T16:21:48.300Z,0.70
2022-09-28T16:22:53.967Z,0.82
2022-09-28T16:23:58.382Z,0.63
2022-09-28T16:25:03.219Z,0.70
2022-09-28T16:26:36.117Z,1.00
2022-09-28T16:27:47.091Z,0.70
2022-09-28T16:28:55.054Z,0.90
2022-09-28T16:30:24.474Z,0.95
2022-09-28T16:31:34.530Z,1.08
2022-09-28T17:17:08.914Z,0.60
2022-09-28T17:18:15.616Z,0.80
2022-09-28T17:19:23.970Z,1.52
2022-09-28T17:20:32.254Z,0.57
2022-09-28T17:21:39.711Z,1.45
2022-09-28T17:22:43.967Z,0.75
2022-09-28T17:23:52.053Z,0.65
2022-09-28T17:25:12.822Z,0.93
2022-09-28T17:26:31.781Z,0.60
2022-09-28T17:27:42.725Z,0.60
2022-09-28T17:28:46.841Z,0.57
2022-09-28T17:29:51.777Z,0.90
2022-09-28T17:30:58.508Z,0.80
2022-09-28T17:32:12.258Z,0.70
2022-09-28T17:33:16.472Z,0.65
2022-09-28T17:34:22.061Z,0.70
2022-09-28T17:35:26.543Z,0.50
2022-09-28T17:36:34.706Z,0.88
2022-09-28T17:37:43.777Z,0.85
2022-09-28T17:38:51.964Z,0.82
2022-09-28T17:39:57.382Z,0.73
2022-09-28T17:41:04.194Z,0.70
2022-09-28T17:42:08.461Z,0.77
2022-09-28T17:43:12.368Z,0.95
2022-09-28T17:44:16.699Z,0.95
2022-09-28T17:45:26.010Z,0.60
2022-09-28T17:46:34.766Z,0.80
2022-09-28T17:47:39.853Z,0.77
2022-09-28T17:48:46.814Z,0.82
2022-09-28T17:49:53.065Z,1.40
2022-09-28T17:50:57.068Z,1.27
2022-09-28T17:52:00.943Z,0.88
2022-09-28T17:53:06.648Z,0.88
2022-09-28T17:54:11.040Z,0.93
2022-09-28T17:55:18.331Z,0.88
2022-09-28T17:56:22.845Z,0.70
2022-09-28T17:57:26.981Z,0.80
2022-09-28T17:58:38.079Z,0.85
2022-09-28T17:59:43.033Z,0.73
2022-09-28T18:00:52.019Z,1.02
2022-09-28T18:02:02.134Z,1.00
2022-09-28T18:03:13.863Z,0.95
2022-09-28T18:04:40.154Z,0.80
2022-09-28T18:05:51.367Z,0.75